Time;durP1;ratioP1;P1;durP2;ratioP2;P2;SDS_P1;SDS_P2;PMS_P1;PMS_P2;Temp;Humidity;BMP_temperature;BMP_pressure;BME280_temperature;BME280_humidity;BME280_pressure;Samples;Min_cycle;Max_cycle;Signal;HPM_P1;HPM_P2
2023/02/19 00:01:31;;;;;;;3.50;1.60;;;;;;;9.35;69.82;98701.11;231915;1193;138843;-70
2023/02/19 00:06:35;;;;;;;3.40;1.80;;;;;;;9.36;69.64;98706.40;229924;1195;138603;-71
2023/02/19 00:11:39;;;;;;;2.30;1.70;;;;;;;9.30;69.58;98698.09;229710;1196;138958;-70
2023/02/19 00:16:42;;;;;;;4.60;2.30;;;;;;;9.25;69.99;98683.66;230263;1196;138729;-72
2023/02/19 00:21:49;;;;;;;3.00;1.80;;;;;;;9.25;69.88;98677.52;229836;1196;139050;-70
2023/02/19 00:26:52;;;;;;;2.50;1.80;;;;;;;9.29;69.67;98684.50;229456;1196;138970;-71
2023/02/19 00:31:56;;;;;;;2.90;1.70;;;;;;;9.30;69.18;98699.11;233419;1193;139100;-70
2023/02/19 00:36:59;;;;;;;3.20;1.80;;;;;;;9.29;69.25;98697.06;233618;1194;141006;-70
2023/02/19 00:42:03;;;;;;;2.30;1.60;;;;;;;9.30;69.26;98689.24;232443;1198;138318;-70
2023/02/19 00:47:06;;;;;;;4.00;2.00;;;;;;;9.29;69.23;98680.41;230632;1193;138204;-71
2023/02/19 00:52:13;;;;;;;2.50;1.70;;;;;;;9.28;68.87;98675.17;233621;1197;140219;-70
2023/02/19 00:57:17;;;;;;;3.00;1.40;;;;;;;9.19;68.94;98672.89;229568;1200;139469;-70
2023/02/19 01:02:20;;;;;;;4.00;1.50;;;;;;;9.18;69.10;98665.69;229327;1206;139476;-70
2023/02/19 01:07:25;;;;;;;2.70;1.90;;;;;;;9.26;69.05;98668.58;230914;1198;138869;-70
2023/02/19 01:12:30;;;;;;;2.70;1.60;;;;;;;9.30;68.82;98665.15;230407;1196;138639;-70
2023/02/19 01:17:35;;;;;;;4.70;2.10;;;;;;;9.36;68.74;98666.54;231259;1193;139822;-71
2023/02/19 01:22:39;;;;;;;2.10;1.50;;;;;;;9.32;68.70;98660.41;229022;1197;138945;-70
2023/02/19 01:27:58;;;;;;;2.30;1.60;;;;;;;9.20;68.79;98655.16;230126;1196;113817;-71
2023/02/19 01:33:05;;;;;;;1.70;1.30;;;;;;;9.18;68.61;98645.71;231775;1197;138601;-73
2023/02/19 01:38:09;;;;;;;2.00;1.40;;;;;;;9.15;68.41;98644.12;230611;1198;139430;-73
2023/02/19 01:43:16;;;;;;;3.30;1.60;;;;;;;9.16;68.28;98648.11;230436;1197;139050;-73
2023/02/19 01:48:24;;;;;;;2.30;1.40;;;;;;;9.15;67.82;98643.45;229455;1198;138276;-72
2023/02/19 01:53:31;;;;;;;2.70;1.30;;;;;;;9.08;67.83;98638.89;229516;1197;138483;-74
2023/02/19 01:58:38;;;;;;;4.00;1.30;;;;;;;9.07;68.03;98637.22;229144;1193;138232;-73
2023/02/19 02:03:45;;;;;;;2.50;1.50;;;;;;;9.04;68.38;98633.53;232233;1197;139208;-71
2023/02/19 02:14:23;;;;;;;3.20;1.90;;;;;;;9.01;68.92;98637.94;231154;1193;139671;-70
2023/02/19 02:19:58;;;;;;;2.60;2.00;;;;;;;9.02;69.69;98633.41;230526;1196;139243;-73
2023/02/19 02:25:31;;;;;;;3.00;2.20;;;;;;;9.14;69.51;98639.23;229634;1197;138367;-74
2023/02/19 02:31:13;;;;;;;2.60;2.00;;;;;;;9.15;69.98;98634.77;234201;1192;138952;-74
2023/02/19 02:36:26;;;;;;;3.00;2.10;;;;;;;9.11;69.53;98638.02;229488;1196;138532;-73
2023/02/19 02:41:32;;;;;;;2.20;1.90;;;;;;;9.05;69.50;98642.80;229608;1196;138637;-74
2023/02/19 02:46:40;;;;;;;2.90;1.90;;;;;;;8.96;69.48;98642.11;230292;1193;138698;-73
2023/02/19 02:51:52;;;;;;;2.10;1.70;;;;;;;8.95;69.74;98634.61;230510;1196;138316;-73
2023/02/19 02:57:01;;;;;;;2.80;1.70;;;;;;;9.01;69.97;98626.05;231419;1192;139116;-74
2023/02/19 03:02:24;;;;;;;2.70;1.80;;;;;;;9.06;70.25;98626.14;232902;1192;138929;-72
2023/02/19 03:07:35;;;;;;;2.40;1.70;;;;;;;9.12;70.32;98623.08;229659;1196;139407;-70
2023/02/19 03:34:54;;;;;;;1.60;1.50;;;;;;;9.00;70.34;98612.13;229414;1196;139661;-71
2023/02/19 03:39:58;;;;;;;2.30;1.80;;;;;;;9.10;70.64;98605.34;229739;1196;139317;-71
2023/02/19 03:45:10;;;;;;;3.00;2.00;;;;;;;9.17;70.70;98599.41;229201;1196;138597;-70
2023/02/19 03:50:40;;;;;;;2.40;1.90;;;;;;;9.12;71.06;98593.02;230196;1196;138756;-69
2023/02/19 03:56:05;;;;;;;2.70;2.10;;;;;;;9.08;71.31;98586.52;231608;1193;139140;-68
2023/02/19 04:01:19;;;;;;;3.60;2.80;;;;;;;9.05;71.52;98586.23;229216;1196;138956;-71
2023/02/19 04:06:26;;;;;;;3.30;2.40;;;;;;;9.03;71.86;98589.00;230882;1199;138458;-71
2023/02/19 04:11:32;;;;;;;5.00;2.60;;;;;;;8.98;72.31;98583.64;231851;1192;140431;-72
2023/02/19 04:16:42;;;;;;;3.50;2.90;;;;;;;9.00;72.37;98579.59;230146;1193;138805;-73
2023/02/19 04:21:48;;;;;;;3.00;2.70;;;;;;;9.07;72.40;98568.02;229744;1194;138606;-73
2023/02/19 04:26:52;;;;;;;3.30;2.50;;;;;;;9.07;72.25;98560.95;229994;1196;137788;-74
2023/02/19 04:31:56;;;;;;;3.00;2.60;;;;;;;9.08;72.03;98547.05;232633;1193;139162;-74
2023/02/19 04:37:00;;;;;;;3.60;2.30;;;;;;;9.08;72.10;98544.80;229528;1193;137916;-73
2023/02/19 04:42:04;;;;;;;2.50;2.20;;;;;;;9.06;72.24;98534.27;230560;1196;140188;-72
2023/02/19 04:47:07;;;;;;;4.20;2.30;;;;;;;9.05;72.03;98538.23;230569;1193;139571;-72
2023/02/19 04:52:11;;;;;;;2.40;2.20;;;;;;;9.08;72.08;98539.63;230288;1193;138716;-71
2023/02/19 04:57:15;;;;;;;2.80;2.10;;;;;;;9.10;72.21;98542.15;232026;1193;138526;-72
2023/02/19 05:02:19;;;;;;;2.50;2.30;;;;;;;9.14;72.17;98546.16;231343;1193;139155;-69
2023/02/19 05:07:22;;;;;;;3.10;2.30;;;;;;;9.13;72.23;98542.36;230189;1193;138891;-70
2023/02/19 05:12:26;;;;;;;3.30;2.00;;;;;;;9.06;72.11;98532.02;229970;1196;138276;-73
2023/02/19 05:17:33;;;;;;;3.00;1.70;;;;;;;8.97;72.48;98530.80;229374;1196;139225;-70
2023/02/19 05:22:37;;;;;;;14.90;12.10;;;;;;;9.03;72.49;98524.23;231483;1196;140448;-70
2023/02/19 05:27:41;;;;;;;21.50;16.70;;;;;;;9.09;72.26;98521.89;230722;1196;138871;-72
2023/02/19 05:32:44;;;;;;;3.80;2.10;;;;;;;9.08;72.36;98508.70;230958;1193;138920;-70
2023/02/19 05:37:48;;;;;;;2.10;1.90;;;;;;;9.12;72.19;98506.25;229787;1193;139659;-72
2023/02/19 05:42:52;;;;;;;2.30;1.70;;;;;;;9.11;72.07;98503.53;231431;1192;138588;-71
2023/02/19 05:47:55;;;;;;;31.20;25.20;;;;;;;9.08;71.93;98492.42;231069;1196;141087;-71
2023/02/19 05:53:04;;;;;;;3.00;2.30;;;;;;;9.07;72.12;98485.73;229542;1196;139009;-71
2023/02/19 05:58:08;;;;;;;63.90;45.70;;;;;;;9.06;72.02;98479.27;230330;1193;138440;-73
2023/02/19 06:03:11;;;;;;;1.60;1.50;;;;;;;9.10;72.18;98486.27;230994;1197;139478;-71
2023/02/19 06:08:15;;;;;;;1.70;1.60;;;;;;;9.08;71.80;98494.14;234114;1192;138617;-71
2023/02/19 06:13:21;;;;;;;1.80;1.50;;;;;;;9.14;71.90;98498.69;232618;1192;138732;-71
2023/02/19 06:18:24;;;;;;;1.60;1.50;;;;;;;9.18;71.68;98481.98;233957;1192;138539;-71
2023/02/19 06:23:28;;;;;;;1.80;1.40;;;;;;;9.12;71.37;98475.67;230987;1196;138956;-71
2023/02/19 06:28:32;;;;;;;1.30;1.20;;;;;;;9.10;71.66;98466.92;230252;1199;140269;-72
2023/02/19 06:33:39;;;;;;;1.60;1.20;;;;;;;9.06;71.77;98470.03;230618;1199;138606;-72
2023/02/19 06:38:43;;;;;;;2.50;1.70;;;;;;;9.11;71.90;98467.77;230077;1192;138116;-73
2023/02/19 06:43:47;;;;;;;51.70;41.20;;;;;;;9.12;71.89;98478.35;229434;1193;138076;-71
2023/02/19 06:48:50;;;;;;;3.30;2.40;;;;;;;9.09;72.20;98491.59;231040;1193;140253;-72
2023/02/19 06:53:54;;;;;;;2.50;1.80;;;;;;;9.16;72.02;98482.66;231045;1192;138268;-71
2023/02/19 06:59:02;;;;;;;1.60;1.40;;;;;;;9.16;71.66;98481.79;233750;1193;138788;-72
2023/02/19 07:04:06;;;;;;;2.40;1.90;;;;;;;9.11;71.96;98485.11;229857;1193;139287;-71
2023/02/19 07:09:10;;;;;;;2.90;2.00;;;;;;;9.19;72.04;98473.40;230738;1193;138478;-73
2023/02/19 07:14:16;;;;;;;2.70;2.10;;;;;;;9.16;72.17;98474.67;231383;1192;140870;-73
2023/02/19 07:19:19;;;;;;;;;;;;;;;9.14;72.44;98474.83;230300;1193;138539;-72
2023/02/19 07:24:22;;;;;;;3.00;2.50;;;;;;;9.20;72.45;98471.43;230204;1193;125320;-71
2023/02/19 07:29:26;;;;;;;3.50;2.30;;;;;;;9.27;72.29;98457.91;230687;1192;139453;-72
2023/02/19 07:34:30;;;;;;;3.10;1.70;;;;;;;9.34;72.16;98459.73;230654;1195;139489;-72
2023/02/19 07:39:34;;;;;;;2.40;2.00;;;;;;;9.40;71.75;98461.77;229107;1196;138905;-72
2023/02/19 07:44:37;;;;;;;43.40;27.40;;;;;;;9.48;71.91;98465.34;230026;1193;138785;-70
2023/02/19 07:49:41;;;;;;;2.70;2.10;;;;;;;9.53;71.96;98464.33;231533;1193;139397;-71
2023/02/19 07:54:44;;;;;;;3.70;2.00;;;;;;;9.59;71.62;98459.65;230253;1196;138746;-71
2023/02/19 07:59:48;;;;;;;2.90;1.90;;;;;;;9.61;71.54;98456.50;229494;1193;138433;-71
2023/02/19 08:04:52;;;;;;;2.40;2.00;;;;;;;9.63;71.69;98453.19;229630;1196;139657;-71
2023/02/19 08:13:18;;;;;;;4.40;2.40;;;;;;;9.71;71.61;98453.53;230108;1193;139543;-72
2023/02/19 08:15:19;;;;;;;5.40;3.00;;;;;;;9.80;71.55;98444.94;231210;1193;138823;-71
2023/02/19 08:20:24;;;;;;;4.10;3.30;;;;;;;9.83;71.47;98443.13;230563;1193;138750;-72
2023/02/19 08:25:28;;;;;;;5.50;4.50;;;;;;;9.82;71.63;98433.63;230016;1198;138706;-72
2023/02/19 08:30:32;;;;;;;5.70;4.60;;;;;;;9.78;71.37;98442.91;230612;1192;139834;-71
2023/02/19 08:35:37;;;;;;;15.70;11.40;;;;;;;9.82;71.68;98441.80;229966;1193;139946;-71
2023/02/19 08:40:42;;;;;;;7.40;5.50;;;;;;;9.91;71.78;98444.70;229957;1193;139405;-71
2023/02/19 08:45:46;;;;;;;6.70;5.00;;;;;;;10.01;71.76;98447.94;229894;1195;138810;-71
2023/02/19 08:50:58;;;;;;;6.70;5.00;;;;;;;9.97;71.15;98447.11;229232;1196;138967;-71
2023/02/19 08:56:11;;;;;;;7.40;5.10;;;;;;;9.90;71.22;98455.75;230274;1194;138370;-71
2023/02/19 09:01:17;;;;;;;4.80;3.80;;;;;;;9.75;71.41;98450.75;230341;1196;138688;-71
2023/02/19 09:06:21;;;;;;;215.30;140.30;;;;;;;9.73;71.76;98444.16;229492;1196;140133;-71
2023/02/19 09:11:24;;;;;;;6.70;5.20;;;;;;;9.74;72.36;98450.69;230035;1198;139545;-70
2023/02/19 09:16:28;;;;;;;4.00;3.00;;;;;;;9.74;71.91;98450.66;229548;1196;138913;-72
2023/02/19 09:21:31;;;;;;;6.90;4.20;;;;;;;9.70;72.16;98453.96;230441;1195;139273;-72
2023/02/19 09:26:35;;;;;;;5.30;3.80;;;;;;;9.66;72.34;98452.95;229789;1196;138766;-72
2023/02/19 09:31:40;;;;;;;;;;;;;;;9.55;72.39;98452.11;230553;1196;138456;-72
2023/02/19 09:36:47;;;;;;;7.00;4.10;;;;;;;9.46;72.31;98458.17;229347;1196;125381;-69
2023/02/19 09:41:57;;;;;;;2.30;1.80;;;;;;;9.40;72.06;98465.70;229823;1193;139168;-69
2023/02/19 09:47:04;;;;;;;2.00;1.40;;;;;;;9.45;71.52;98475.96;231333;1196;139122;-72
2023/02/19 09:52:17;;;;;;;1.90;1.10;;;;;;;9.42;71.16;98473.67;231159;1193;138510;-71
2023/02/19 09:57:21;;;;;;;2.00;1.40;;;;;;;9.36;70.71;98473.60;229787;1196;138713;-71
2023/02/19 10:02:26;;;;;;;110.60;68.80;;;;;;;9.32;71.34;98473.52;229014;1196;138634;-71
2023/02/19 10:07:42;;;;;;;18.10;13.00;;;;;;;9.33;71.19;98475.52;231762;1193;138906;-71
2023/02/19 10:12:49;;;;;;;;;;;;;;;9.27;71.70;98476.11;230090;1193;138922;-73
2023/02/19 10:17:53;;;;;;;5.40;3.30;;;;;;;9.27;71.91;98476.48;232204;1194;125586;-69
2023/02/19 10:23:05;;;;;;;3.00;2.30;;;;;;;9.28;72.02;98491.27;230516;1195;139320;-71
2023/02/19 10:28:14;;;;;;;3.60;1.70;;;;;;;9.29;71.84;98494.40;230203;1192;138464;-70
2023/02/19 10:33:19;;;;;;;3.20;1.80;;;;;;;9.30;71.04;98513.14;230047;1196;138358;-70
2023/02/19 10:38:24;;;;;;;3.50;1.70;;;;;;;9.13;70.11;98527.80;230607;1192;138994;-69
2023/02/19 10:43:32;;;;;;;;;;;;;;;8.90;69.99;98537.23;229844;1193;138634;-69
2023/02/19 10:48:40;;;;;;;2.50;1.50;;;;;;;8.68;69.40;98548.55;229428;1196;125356;-70
2023/02/19 10:53:47;;;;;;;3.60;1.90;;;;;;;8.47;69.70;98552.97;231635;1193;138908;-70
2023/02/19 10:58:51;;;;;;;3.50;1.90;;;;;;;8.30;69.74;98555.63;233845;1192;138560;-70
2023/02/19 11:04:16;;;;;;;3.60;1.80;;;;;;;8.17;69.77;98555.52;230615;1192;139561;-69
2023/02/19 11:09:26;;;;;;;2.00;1.40;;;;;;;8.20;69.98;98569.80;233476;1193;138916;-70
2023/02/19 11:14:33;;;;;;;3.30;1.80;;;;;;;8.24;69.55;98584.38;234998;1193;138466;-70
2023/02/19 11:19:43;;;;;;;2.80;1.80;;;;;;;8.24;69.20;98592.02;232738;1193;138405;-69
2023/02/19 11:24:49;;;;;;;3.10;1.50;;;;;;;8.18;68.93;98600.31;230168;1195;138870;-69
2023/02/19 11:30:33;;;;;;;1.70;1.30;;;;;;;8.09;68.40;98595.02;230777;1196;138573;-70
2023/02/19 11:35:38;;;;;;;2.20;1.50;;;;;;;7.92;67.90;98600.60;232344;1192;138259;-70
2023/02/19 11:41:08;;;;;;;95.90;64.00;;;;;;;7.78;68.50;98612.70;231108;1196;138444;-71
2023/02/19 11:46:22;;;;;;;11.90;7.40;;;;;;;7.73;68.95;98620.09;230594;1193;139065;-74
2023/02/19 11:51:47;;;;;;;3.30;2.40;;;;;;;7.71;68.61;98626.73;230562;1193;138419;-73
2023/02/19 11:57:17;;;;;;;2.60;2.00;;;;;;;7.71;68.48;98638.75;232322;1193;140301;-73
2023/02/19 12:02:52;;;;;;;3.90;2.10;;;;;;;7.74;68.43;98654.09;234363;1192;139701;-70
2023/02/19 12:08:34;;;;;;;51.90;38.10;;;;;;;7.76;67.92;98658.56;229953;1196;138886;-70
2023/02/19 12:13:46;;;;;;;3.60;2.20;;;;;;;7.81;67.85;98658.77;231385;1193;139579;-69
2023/02/19 12:19:00;;;;;;;2.50;1.80;;;;;;;7.85;67.13;98660.89;231348;1196;139082;-70
2023/02/19 12:24:48;;;;;;;2.80;1.80;;;;;;;7.76;66.69;98671.48;231148;1193;138678;-72
2023/02/19 12:30:10;;;;;;;3.00;1.70;;;;;;;7.61;66.66;98675.68;232143;1192;138466;-70
2023/02/19 12:35:33;;;;;;;3.30;2.10;;;;;;;7.53;66.28;98691.64;229445;1196;138558;-72
2023/02/19 12:41:02;;;;;;;4.00;2.50;;;;;;;7.47;66.78;98705.42;229708;1193;138940;-68
2023/02/19 12:46:11;;;;;;;5.10;3.30;;;;;;;7.52;68.50;98705.10;230486;1196;138982;-67
2023/02/19 12:51:34;;;;;;;4.00;2.50;;;;;;;7.57;67.27;98705.17;231956;1192;138965;-67
2023/02/19 12:57:10;;;;;;;3.60;2.50;;;;;;;7.52;67.29;98703.89;233844;1193;139826;-67
2023/02/19 13:02:45;;;;;;;5.30;3.40;;;;;;;7.67;67.12;98714.31;233254;1193;139127;-73
2023/02/19 13:08:10;;;;;;;6.30;3.90;;;;;;;7.83;67.45;98711.00;231270;1193;138574;-69
2023/02/19 13:13:29;;;;;;;4.80;2.90;;;;;;;7.79;66.66;98711.91;231383;1193;138413;-67
2023/02/19 13:18:43;;;;;;;4.00;2.80;;;;;;;7.67;66.16;98713.31;230617;1192;138737;-67
2023/02/19 13:24:01;;;;;;;5.80;2.90;;;;;;;7.68;66.10;98719.63;229885;1192;138339;-71
2023/02/19 13:29:37;;;;;;;4.10;2.70;;;;;;;7.59;65.82;98729.95;233224;1192;139740;-70
2023/02/19 13:34:59;;;;;;;4.10;2.70;;;;;;;7.54;65.88;98745.95;235733;1192;138809;-70
2023/02/19 13:40:30;;;;;;;44.40;31.50;;;;;;;7.53;65.32;98751.99;233757;1192;139067;-68
2023/02/19 13:45:40;;;;;;;3.10;2.30;;;;;;;7.52;64.88;98760.02;233826;1193;139612;-68
2023/02/19 13:50:46;;;;;;;4.10;2.40;;;;;;;7.43;64.49;98769.66;234431;1192;140024;-69
2023/02/19 13:55:51;;;;;;;3.80;2.20;;;;;;;7.44;64.17;98774.21;230647;1195;138709;-68
2023/02/19 14:00:55;;;;;;;4.50;1.90;;;;;;;7.41;63.95;98783.01;231146;1196;139101;-70
2023/02/19 14:06:07;;;;;;;3.20;2.10;;;;;;;7.25;63.73;98797.62;230358;1195;138232;-69
2023/02/19 14:11:13;;;;;;;4.10;2.00;;;;;;;7.14;64.23;98798.06;229356;1196;139728;-68
2023/02/19 14:16:41;;;;;;;35.80;25.40;;;;;;;7.11;63.92;98803.64;234821;1193;139507;-70
2023/02/19 14:21:47;;;;;;;5.20;2.60;;;;;;;7.05;63.37;98816.68;231017;1196;140092;-74
2023/02/19 14:26:56;;;;;;;3.00;2.00;;;;;;;7.08;62.87;98828.67;232039;1193;143488;-73
2023/02/19 14:32:04;;;;;;;91.10;57.20;;;;;;;7.11;62.33;98837.35;231334;1193;139297;-75
2023/02/19 14:37:20;;;;;;;7.20;4.00;;;;;;;7.06;62.43;98852.04;232919;1194;138350;-75
2023/02/19 14:42:31;;;;;;;2.90;1.80;;;;;;;6.98;61.73;98867.31;230193;1196;138333;-72
2023/02/19 14:47:36;;;;;;;13.10;7.70;;;;;;;6.98;61.75;98883.17;234476;1192;138557;-72
2023/02/19 14:52:47;;;;;;;4.50;2.40;;;;;;;6.97;61.43;98897.31;231750;1193;140208;-73
2023/02/19 14:57:54;;;;;;;5.70;2.30;;;;;;;6.93;61.20;98910.77;231259;1193;138585;-77
2023/02/19 15:03:01;;;;;;;3.40;1.90;;;;;;;6.90;61.14;98920.05;231971;1196;137984;-76
2023/02/19 15:08:15;;;;;;;4.20;2.10;;;;;;;6.77;60.27;98924.55;232902;1194;138064;-73
2023/02/19 15:13:25;;;;;;;4.30;2.50;;;;;;;6.68;60.60;98925.55;231856;1195;138942;-72
2023/02/19 15:18:35;;;;;;;4.10;2.30;;;;;;;6.64;60.58;98934.89;230734;1196;138190;-74
2023/02/19 15:23:39;;;;;;;241.10;166.50;;;;;;;6.58;61.31;98942.55;233487;1192;139162;-72
2023/02/19 15:28:44;;;;;;;7.40;3.90;;;;;;;6.59;61.26;98948.33;230757;1196;138819;-75
2023/02/19 15:33:51;;;;;;;6.60;3.60;;;;;;;6.61;60.85;98958.64;232620;1192;138209;-73
2023/02/19 15:39:00;;;;;;;7.50;3.80;;;;;;;6.53;60.26;98969.08;231587;1192;138899;-74
2023/02/19 15:44:46;;;;;;;5.30;3.10;;;;;;;6.45;60.48;98970.71;232142;1193;138535;-72
2023/02/19 15:49:55;;;;;;;7.50;3.80;;;;;;;6.47;60.77;98983.29;233201;1193;138951;-72
2023/02/19 16:02:48;;;;;;;6.70;4.00;;;;;;;6.51;60.17;99006.89;232110;1195;138390;-75
2023/02/19 16:16:12;;;;;;;7.80;3.60;;;;;;;6.38;60.35;99017.84;229924;1195;138330;-74
2023/02/19 16:21:23;;;;;;;8.00;3.60;;;;;;;6.33;60.37;99035.71;229340;1198;138243;-76
2023/02/19 16:26:28;;;;;;;7.50;3.70;;;;;;;6.29;60.07;99057.73;230237;1193;138384;-77
2023/02/19 16:31:31;;;;;;;89.50;59.20;;;;;;;6.31;60.44;99071.59;232223;1198;138617;-75
2023/02/19 16:36:40;;;;;;;13.50;8.10;;;;;;;6.37;60.57;99087.48;232041;1196;138498;-77
2023/02/19 16:41:47;;;;;;;9.90;4.50;;;;;;;6.40;59.79;99091.44;230270;1195;138858;-74
2023/02/19 16:47:16;;;;;;;6.70;3.80;;;;;;;6.34;58.98;99097.50;231178;1195;235831;-74
2023/02/19 16:52:20;;;;;;;8.50;3.60;;;;;;;6.26;58.63;99108.27;230105;1197;138595;-76
2023/02/19 16:57:24;;;;;;;9.60;5.40;;;;;;;6.17;57.92;99109.52;232849;1198;138738;-77
2023/02/19 17:02:37;;;;;;;7.90;3.30;;;;;;;6.16;57.44;99126.34;229152;1207;138158;-83
2023/02/19 17:07:41;;;;;;;7.40;3.80;;;;;;;6.13;57.51;99134.38;233065;1196;142582;-81
2023/02/19 17:12:45;;;;;;;6.40;3.20;;;;;;;6.18;56.89;99141.92;234327;1196;139650;-77
2023/02/19 17:17:49;;;;;;;9.80;3.50;;;;;;;6.17;56.49;99152.17;234757;1193;138618;-75
2023/02/19 17:22:55;;;;;;;8.70;3.20;;;;;;;6.13;56.49;99160.77;233100;1195;138988;-71
2023/02/19 17:27:58;;;;;;;7.60;3.40;;;;;;;6.12;56.41;99172.97;231213;1198;138242;-73
2023/02/19 17:33:02;;;;;;;9.50;3.70;;;;;;;6.13;56.43;99183.32;235179;1196;138521;-74
2023/02/19 17:38:08;;;;;;;8.40;3.70;;;;;;;6.21;56.13;99193.55;230332;1195;139079;-71
2023/02/19 17:43:25;;;;;;;11.20;4.30;;;;;;;6.23;56.23;99202.64;230411;1195;138315;-72
2023/02/19 17:48:29;;;;;;;12.20;4.70;;;;;;;6.17;55.95;99203.41;230550;1198;138480;-74
2023/02/19 17:53:33;;;;;;;9.60;4.60;;;;;;;6.14;55.99;99209.20;230729;1195;138861;-77
2023/02/19 17:58:36;;;;;;;12.70;5.40;;;;;;;6.05;56.14;99216.63;229669;1195;138759;-72
2023/02/19 18:03:39;;;;;;;14.10;5.20;;;;;;;5.95;56.24;99227.23;231480;1196;140516;-73
2023/02/19 18:09:07;;;;;;;16.00;5.70;;;;;;;5.93;56.54;99242.27;232580;1193;138820;-75
2023/02/19 18:14:11;;;;;;;11.10;5.30;;;;;;;5.86;56.70;99253.06;229536;1196;138532;-74
2023/02/19 18:19:14;;;;;;;12.90;4.90;;;;;;;5.80;57.00;99254.70;229750;1195;138875;-74
2023/02/19 18:24:18;;;;;;;9.70;5.30;;;;;;;5.80;57.12;99266.16;230167;1198;138888;-76
2023/02/19 18:29:23;;;;;;;15.10;6.90;;;;;;;5.75;57.15;99275.48;229770;1198;138292;-76
2023/02/19 18:34:26;;;;;;;12.60;5.50;;;;;;;5.76;57.15;99277.23;229988;1195;138673;-74
2023/02/19 18:39:29;;;;;;;58.50;37.80;;;;;;;5.74;57.51;99290.52;229387;1210;113588;-68
2023/02/19 18:45:06;;;;;;;13.80;6.70;;;;;;;5.74;57.21;99301.08;231758;1198;138548;-77
2023/02/19 18:50:43;;;;;;;13.10;6.30;;;;;;;5.63;57.22;99305.17;229653;1199;137644;-74
2023/02/19 18:55:46;;;;;;;16.00;7.60;;;;;;;5.60;57.27;99308.65;229648;1198;112962;-73
2023/02/19 19:01:28;;;;;;;13.50;6.10;;;;;;;5.55;57.49;99309.19;229970;1196;137853;-74
2023/02/19 19:06:34;;;;;;;15.70;6.10;;;;;;;5.54;57.45;99312.23;229819;1199;138493;-73
2023/02/19 19:12:25;;;;;;;13.30;4.90;;;;;;;5.51;57.51;99317.79;229377;1198;113693;-72
2023/02/19 20:00:02;;;;;;;35.20;20.10;;;;;;;5.44;58.34;99375.58;229514;1198;138833;-73
2023/02/19 20:05:59;;;;;;;16.40;7.20;;;;;;;5.25;58.14;99386.61;231274;1197;138460;-71
2023/02/19 20:11:04;;;;;;;17.90;8.90;;;;;;;5.20;58.58;99386.42;232312;1192;143447;-71
2023/02/19 20:16:09;;;;;;;14.50;6.60;;;;;;;5.28;58.65;99389.35;231205;1193;139703;-71
2023/02/19 20:21:13;;;;;;;;;;;;;;;5.32;58.37;99397.31;232181;1195;139013;-71
2023/02/19 20:26:21;;;;;;;16.70;7.50;;;;;;;5.20;58.34;99397.70;234628;1193;125533;-71
2023/02/19 20:31:25;;;;;;;17.20;7.80;;;;;;;5.06;58.62;99394.65;234819;1192;139300;-72
2023/02/19 20:36:28;;;;;;;18.50;8.00;;;;;;;5.09;58.79;99400.02;232392;1193;139151;-72
2023/02/19 20:41:32;;;;;;;15.80;7.00;;;;;;;5.13;58.88;99397.25;232561;1193;139071;-71
2023/02/19 20:46:46;;;;;;;13.20;6.80;;;;;;;5.19;58.65;99399.84;230242;1197;139270;-69
2023/02/19 20:51:53;;;;;;;16.00;7.20;;;;;;;5.22;58.24;99411.16;230859;1196;138828;-72
2023/02/19 20:57:00;;;;;;;14.90;7.30;;;;;;;5.22;58.34;99416.45;233218;1198;140183;-71
2023/02/19 21:02:13;;;;;;;13.20;6.60;;;;;;;5.19;58.27;99423.95;229653;1207;139395;-71
2023/02/19 21:07:16;;;;;;;14.60;6.50;;;;;;;5.12;58.30;99429.27;229646;1196;138431;-69
2023/02/19 21:12:21;;;;;;;14.40;6.60;;;;;;;5.14;58.24;99433.80;229183;1196;138996;-71
2023/02/19 21:17:24;;;;;;;15.30;6.70;;;;;;;5.07;57.89;99443.88;229129;1196;139056;-72
2023/02/19 21:22:27;;;;;;;15.80;6.80;;;;;;;5.02;58.32;99454.05;230358;1196;139025;-72
2023/02/19 21:27:32;;;;;;;14.70;7.30;;;;;;;4.96;58.39;99458.80;231906;1193;138947;-72
2023/02/19 21:32:36;;;;;;;14.20;7.10;;;;;;;4.91;58.83;99460.04;230870;1193;138544;-72
2023/02/19 21:37:43;;;;;;;18.90;7.30;;;;;;;4.87;58.92;99464.73;230219;1196;139313;-71
2023/02/19 21:42:46;;;;;;;19.10;8.50;;;;;;;4.89;58.92;99472.94;229382;1193;138903;-73
2023/02/19 21:47:51;;;;;;;16.90;7.90;;;;;;;4.84;59.33;99480.46;230937;1197;138888;-72
2023/02/19 21:52:54;;;;;;;19.60;8.80;;;;;;;4.72;59.62;99494.73;230727;1193;138614;-72
2023/02/19 21:57:57;;;;;;;19.30;8.70;;;;;;;4.67;59.58;99499.45;231103;1196;138751;-72
2023/02/19 22:03:01;;;;;;;15.60;8.10;;;;;;;4.65;59.70;99502.51;229106;1196;141235;-73
2023/02/19 22:08:05;;;;;;;19.70;9.10;;;;;;;4.66;59.52;99503.69;230609;1196;139741;-71
2023/02/19 22:13:09;;;;;;;15.90;8.00;;;;;;;4.58;59.79;99505.72;229374;1193;138602;-72
2023/02/19 22:18:12;;;;;;;12.70;7.30;;;;;;;4.56;59.91;99516.84;230535;1196;138538;-72
2023/02/19 22:23:16;;;;;;;18.00;8.50;;;;;;;4.48;59.45;99520.58;229277;1193;139016;-71
2023/02/19 22:28:22;;;;;;;14.50;8.30;;;;;;;4.42;59.45;99519.36;228687;1199;140459;-73
2023/02/19 22:33:26;;;;;;;20.30;8.40;;;;;;;4.38;59.74;99527.55;230142;1196;138478;-72
2023/02/19 22:38:29;;;;;;;14.90;7.60;;;;;;;4.27;59.76;99533.33;231397;1196;138548;-72
2023/02/19 22:43:33;;;;;;;17.50;7.80;;;;;;;4.22;60.07;99540.48;230048;1193;138474;-73
2023/02/19 22:48:37;;;;;;;23.50;8.40;;;;;;;4.22;60.32;99545.04;229995;1194;138570;-70
2023/02/19 22:53:43;;;;;;;14.50;8.10;;;;;;;4.15;59.96;99551.92;231550;1199;139524;-71
2023/02/19 22:58:46;;;;;;;17.70;8.10;;;;;;;4.14;60.29;99556.52;230079;1194;138632;-70
2023/02/19 23:03:59;;;;;;;20.60;9.00;;;;;;;4.21;60.48;99560.35;228996;1199;138836;-70
2023/02/19 23:09:13;;;;;;;19.90;9.20;;;;;;;4.24;60.27;99561.66;229238;1197;138560;-73
2023/02/19 23:14:27;;;;;;;21.60;8.20;;;;;;;4.31;60.27;99563.42;229007;1196;139175;-72
2023/02/19 23:19:31;;;;;;;20.30;9.00;;;;;;;4.33;60.09;99560.73;233578;1196;138486;-72
2023/02/19 23:24:34;;;;;;;20.00;9.20;;;;;;;4.28;60.20;99566.14;230496;1197;138728;-72
2023/02/19 23:29:38;;;;;;;21.00;9.10;;;;;;;4.33;60.19;99568.81;232836;1193;138583;-73
2023/02/19 23:34:41;;;;;;;16.00;8.50;;;;;;;4.36;60.19;99577.52;231883;1193;138967;-72
2023/02/19 23:39:45;;;;;;;16.50;8.30;;;;;;;4.37;60.03;99575.37;232230;1196;138750;-70
2023/02/19 23:44:48;;;;;;;18.70;8.80;;;;;;;4.38;60.03;99577.11;229210;1196;138311;-73
2023/02/19 23:49:52;;;;;;;18.70;8.50;;;;;;;4.38;60.31;99572.17;229108;1199;138529;-73
2023/02/19 23:54:55;;;;;;;18.70;8.30;;;;;;;4.39;60.22;99581.48;229731;1198;138571;-73
2023/02/19 23:59:59;;;;;;;17.50;8.20;;;;;;;4.39;60.45;99579.19;231517;1193;138395;-70
